createdAt,value
2019-03-16T00:00:31.184Z,4.10
2019-03-16T00:05:34.185Z,3.45
2019-03-16T00:10:37.715Z,1.75
2019-03-16T00:15:41.003Z,2.22
2019-03-16T00:20:44.101Z,2.12
2019-03-16T00:25:47.404Z,1.37
2019-03-16T00:30:50.526Z,3.22
2019-03-16T00:35:53.632Z,2.27
2019-03-16T00:40:56.883Z,1.50
2019-03-16T00:46:00.009Z,2.15
2019-03-16T00:51:03.339Z,2.15
2019-03-16T00:56:06.498Z,1.35
2019-03-16T01:01:09.715Z,0.82
2019-03-16T01:06:12.861Z,1.50
2019-03-16T01:11:15.829Z,1.35
2019-03-16T01:16:18.953Z,1.12
2019-03-16T01:21:22.027Z,1.47
2019-03-16T01:26:25.155Z,0.57
2019-03-16T01:31:28.144Z,0.60
2019-03-16T01:36:31.281Z,6.92
2019-03-16T01:41:34.366Z,1.32
2019-03-16T01:46:37.597Z,0.93
2019-03-16T01:51:40.730Z,3.17
2019-03-16T01:56:43.694Z,1.70
2019-03-16T02:01:49.298Z,1.50
2019-03-16T02:06:52.084Z,3.80
2019-03-16T02:11:55.198Z,2.45
2019-03-16T02:16:58.174Z,3.58
2019-03-16T02:22:01.398Z,1.80
2019-03-16T02:27:04.471Z,1.50
2019-03-16T02:32:07.921Z,1.77
2019-03-16T02:37:10.953Z,2.67
2019-03-16T02:42:14.033Z,1.40
2019-03-16T02:47:17.291Z,1.23
2019-03-16T02:52:20.463Z,2.67
2019-03-16T02:57:23.935Z,2.42
2019-03-16T03:02:27.394Z,0.85
2019-03-16T03:07:30.575Z,1.80
2019-03-16T03:12:33.557Z,0.50
2019-03-16T03:17:36.890Z,1.95
2019-03-16T03:22:40.334Z,1.77
2019-03-16T03:27:43.644Z,0.82
2019-03-16T03:32:46.644Z,4.37
2019-03-16T03:37:49.976Z,1.00
2019-03-16T03:42:53.168Z,3.05
2019-03-16T03:47:56.393Z,2.45
2019-03-16T03:52:59.686Z,1.90
2019-03-16T03:58:03.015Z,3.00
2019-03-16T04:03:06.698Z,1.62
2019-03-16T04:08:09.660Z,3.75
2019-03-16T04:13:12.987Z,2.72
2019-03-16T04:18:16.094Z,1.67
2019-03-16T04:23:19.166Z,1.85
2019-03-16T04:28:22.278Z,2.98
2019-03-16T04:33:25.938Z,1.77
2019-03-16T04:38:28.914Z,1.77
2019-03-16T04:43:31.919Z,4.70
2019-03-16T04:48:35.147Z,5.35
2019-03-16T04:53:38.356Z,2.27
2019-03-16T04:58:41.365Z,2.83
2019-03-16T05:03:44.352Z,3.90
2019-03-16T05:08:47.695Z,1.75
2019-03-16T05:13:50.776Z,4.33
2019-03-16T05:18:54.049Z,4.00
2019-03-16T05:23:57.300Z,1.50
2019-03-16T05:29:00.617Z,2.55
2019-03-16T05:34:03.721Z,4.85
2019-03-16T05:39:07.513Z,1.92
2019-03-16T05:44:10.743Z,3.02
2019-03-16T05:49:13.739Z,4.78
2019-03-16T05:54:16.696Z,1.85
2019-03-16T05:59:20.103Z,2.77
2019-03-16T06:04:23.513Z,4.95
2019-03-16T06:09:26.714Z,3.92
2019-03-16T06:14:29.798Z,4.40
2019-03-16T06:19:33.032Z,2.47
2019-03-16T06:24:35.993Z,3.27
2019-03-16T06:29:39.230Z,3.67
2019-03-16T06:34:42.434Z,3.65
2019-03-16T06:39:45.540Z,4.20
2019-03-16T06:44:48.873Z,2.47
2019-03-16T06:49:52.333Z,2.90
2019-03-16T06:54:55.478Z,3.87
2019-03-16T06:59:58.641Z,3.95
2019-03-16T07:05:01.794Z,6.92
2019-03-16T07:10:05.583Z,2.85
2019-03-16T07:15:08.789Z,2.08
2019-03-16T07:20:12.322Z,4.62
2019-03-16T07:25:15.432Z,4.70
2019-03-16T07:30:18.604Z,3.70
2019-03-16T07:35:21.856Z,7.03
2019-03-16T07:40:27.923Z,4.65
2019-03-16T07:45:31.076Z,5.50
2019-03-16T07:50:34.427Z,4.37
2019-03-16T07:55:37.998Z,4.67
2019-03-16T08:00:41.207Z,4.62
2019-03-16T08:05:44.318Z,9.63
2019-03-16T08:10:47.327Z,7.25
2019-03-16T08:15:50.648Z,3.87
2019-03-16T08:20:53.853Z,4.03
2019-03-16T08:25:56.877Z,6.30
2019-03-16T08:31:00.130Z,5.03
2019-03-16T08:36:03.393Z,6.80
2019-03-16T08:41:06.687Z,7.22
2019-03-16T08:46:10.105Z,6.05
2019-03-16T08:51:13.120Z,4.58
2019-03-16T08:56:16.196Z,9.53
2019-03-16T09:01:19.243Z,5.58
2019-03-16T09:06:22.557Z,7.55
2019-03-16T09:11:25.565Z,4.47
2019-03-16T09:16:28.581Z,10.30
2019-03-16T09:21:31.542Z,5.30
2019-03-16T09:26:35.069Z,5.92
2019-03-16T09:31:38.223Z,5.22
2019-03-16T09:36:41.380Z,3.15
2019-03-16T09:41:44.679Z,8.83
2019-03-16T09:46:47.688Z,5.85
2019-03-16T09:51:50.884Z,9.78
2019-03-16T09:57:00.996Z,3.85
2019-03-16T10:01:58.891Z,8.58
2019-03-16T10:07:02.460Z,6.35
2019-03-16T10:12:05.494Z,6.58
2019-03-16T10:17:08.668Z,5.80
2019-03-16T10:22:11.817Z,7.10
2019-03-16T10:27:15.401Z,5.83
2019-03-16T10:32:18.523Z,5.45
2019-03-16T10:37:21.926Z,9.30
2019-03-16T10:42:25.175Z,4.30
2019-03-16T10:47:28.469Z,6.33
2019-03-16T10:52:31.478Z,9.93
2019-03-16T10:57:35.066Z,6.05
2019-03-16T11:02:38.330Z,3.92
2019-03-16T11:07:41.823Z,4.55
2019-03-16T11:12:44.905Z,6.17
2019-03-16T11:17:48.118Z,6.00
2019-03-16T11:22:51.173Z,5.28
2019-03-16T11:27:54.177Z,7.80
2019-03-16T11:32:57.204Z,4.63
2019-03-16T11:38:00.190Z,6.87
2019-03-16T11:43:03.564Z,7.87
2019-03-16T11:48:06.644Z,5.47
2019-03-16T11:53:09.830Z,5.60
2019-03-16T11:58:13.070Z,3.85
2019-03-16T12:03:16.180Z,5.08
2019-03-16T12:08:19.348Z,7.40
2019-03-16T12:13:22.549Z,6.70
2019-03-16T12:18:25.775Z,6.80
2019-03-16T12:23:28.861Z,5.15
2019-03-16T12:28:32.143Z,5.10
2019-03-16T12:33:35.293Z,9.98
2019-03-16T12:38:38.652Z,4.92
2019-03-16T12:43:41.727Z,5.95
2019-03-16T12:48:45.053Z,5.12
2019-03-16T12:53:48.534Z,5.45
2019-03-16T12:58:51.594Z,7.42
2019-03-16T13:03:54.680Z,6.37
2019-03-16T13:08:57.608Z,4.40
2019-03-16T13:14:00.800Z,5.33
2019-03-16T13:19:03.755Z,10.13
2019-03-16T13:24:06.742Z,6.20
2019-03-16T13:29:09.940Z,5.42
2019-03-16T13:34:12.938Z,5.58
2019-03-16T13:39:16.004Z,5.75
2019-03-16T13:44:19.494Z,6.55
2019-03-16T13:49:22.535Z,6.47
2019-03-16T13:54:25.734Z,6.58
2019-03-16T13:59:29.128Z,7.03
2019-03-16T14:04:32.583Z,6.97
2019-03-16T14:09:35.783Z,5.05
2019-03-16T14:14:39.312Z,7.17
2019-03-16T14:19:42.582Z,5.22
2019-03-16T14:24:45.891Z,3.83
2019-03-16T14:29:49.907Z,4.30
2019-03-16T14:34:53.137Z,6.30
2019-03-16T14:39:56.642Z,5.72
2019-03-16T14:44:59.691Z,7.00
2019-03-16T14:50:03.520Z,8.10
2019-03-16T14:55:06.930Z,7.70
2019-03-16T15:00:12.186Z,6.45
2019-03-16T15:05:15.365Z,5.70
2019-03-16T15:10:18.602Z,5.78
2019-03-16T15:15:21.807Z,7.15
2019-03-16T15:20:25.034Z,4.05
2019-03-16T15:25:28.345Z,9.10
2019-03-16T15:30:31.646Z,6.17
2019-03-16T15:35:35.036Z,8.30
2019-03-16T15:40:38.497Z,8.95
2019-03-16T15:45:41.702Z,11.68
2019-03-16T15:50:45.227Z,7.10
2019-03-16T15:55:48.432Z,10.15
2019-03-16T16:01:03.160Z,8.75
2019-03-16T16:05:57.725Z,7.20
2019-03-16T16:11:01.565Z,8.80
2019-03-16T16:16:05.058Z,11.10
2019-03-16T16:21:08.293Z,10.78
2019-03-16T16:26:11.319Z,9.85
2019-03-16T16:31:16.630Z,9.00
2019-03-16T16:36:19.584Z,9.48
2019-03-16T16:41:25.451Z,9.95
2019-03-16T16:46:28.162Z,8.78
2019-03-16T16:51:31.478Z,9.30
2019-03-16T16:56:34.638Z,9.10
2019-03-16T17:01:37.725Z,12.05
2019-03-16T17:06:41.149Z,10.50
2019-03-16T17:11:44.466Z,12.07
2019-03-16T17:16:47.870Z,12.85
2019-03-16T17:21:51.030Z,9.00
2019-03-16T17:26:54.101Z,11.97
2019-03-16T17:31:57.498Z,8.53
2019-03-16T17:37:00.492Z,12.58
2019-03-16T17:42:03.817Z,9.05
2019-03-16T17:47:07.047Z,10.00
2019-03-16T17:52:10.142Z,10.98
2019-03-16T17:57:13.145Z,9.27
2019-03-16T18:02:16.365Z,12.75
2019-03-16T18:07:19.364Z,12.68
2019-03-16T18:12:22.548Z,11.28
2019-03-16T18:17:25.621Z,12.90
2019-03-16T18:22:28.600Z,10.98
2019-03-16T18:27:31.669Z,11.12
2019-03-16T18:32:34.925Z,8.20
2019-03-16T18:37:38.130Z,11.80
2019-03-16T18:42:41.186Z,11.53
2019-03-16T18:47:44.575Z,10.05
2019-03-16T18:52:48.059Z,13.83
2019-03-16T18:57:51.592Z,10.60
2019-03-16T19:02:54.642Z,12.95
2019-03-16T19:07:57.712Z,15.43
2019-03-16T19:13:00.902Z,9.05
2019-03-16T19:18:04.318Z,13.30
2019-03-16T19:23:07.627Z,9.68
2019-03-16T19:28:10.840Z,10.13
2019-03-16T19:33:14.070Z,10.95
2019-03-16T19:38:17.136Z,8.00
2019-03-16T19:43:21.261Z,8.95
2019-03-16T19:48:24.277Z,9.25
2019-03-16T19:53:27.716Z,10.80
2019-03-16T19:58:30.842Z,7.12
2019-03-16T20:03:33.889Z,12.15
2019-03-16T20:08:37.028Z,8.13
2019-03-16T20:13:40.045Z,7.08
2019-03-16T20:18:43.132Z,10.80
2019-03-16T20:23:46.283Z,9.88
2019-03-16T20:28:49.400Z,8.90
2019-03-16T20:33:52.639Z,9.75
2019-03-16T20:38:55.661Z,11.50
2019-03-16T20:43:58.902Z,10.55
2019-03-16T20:49:01.963Z,11.18
2019-03-16T20:54:06.165Z,8.90
2019-03-16T20:59:09.684Z,11.45
2019-03-16T21:04:12.673Z,8.38
2019-03-16T21:09:15.972Z,10.18
2019-03-16T21:14:19.085Z,11.75
2019-03-16T21:19:22.668Z,12.75
2019-03-16T21:24:25.864Z,14.73
2019-03-16T21:29:29.122Z,14.60
2019-03-16T21:34:33.460Z,13.43
2019-03-16T21:39:36.868Z,15.55
2019-03-16T21:44:40.752Z,15.00
2019-03-16T21:49:43.898Z,15.30
2019-03-16T21:54:47.008Z,15.35
2019-03-16T21:59:50.118Z,17.32
2019-03-16T22:04:53.236Z,14.83
2019-03-16T22:09:56.604Z,14.83
2019-03-16T22:14:59.696Z,12.90
2019-03-16T22:20:02.965Z,13.20
2019-03-16T22:25:06.275Z,15.78
2019-03-16T22:30:09.912Z,16.55
2019-03-16T22:35:13.217Z,17.15
2019-03-16T22:40:16.283Z,17.42
2019-03-16T22:45:19.695Z,13.10
2019-03-16T22:50:22.803Z,14.87
2019-03-16T22:55:26.156Z,14.60
2019-03-16T23:00:42.610Z,16.27
2019-03-16T23:05:45.572Z,15.83
2019-03-16T23:10:49.059Z,12.10
2019-03-16T23:15:52.400Z,14.47
2019-03-16T23:20:55.997Z,12.82
2019-03-16T23:25:59.313Z,13.20
2019-03-16T23:31:03.280Z,17.07
2019-03-16T23:36:06.568Z,14.13
2019-03-16T23:41:09.538Z,13.83
2019-03-16T23:46:12.795Z,14.50
2019-03-16T23:51:15.883Z,16.52
2019-03-16T23:56:19.016Z,17.87
